• Join FlightAware (Why Join?)
  • Login
  • US Flag 
05:47AM EDT


 

Airport Tracker/Info


-or-


 

Live Flight TrackerFlight Track Log ✈ N101MA ✈ 08-Jul-2013 ✈ KGON - KLOM

Flight Track Log - Related Links

Times and Time Zones

All times are in EDT time to prevent confusion due to time zone crossing. See the N101MA flight status page for this flight to view local times or setup timezone preferences in your user account.

Time Position Orientation Groundspeed Altitude Reporting Facility
EDT Latitude Longitude Course Direction KTS MPH feet Rate Location/Type
01:23PM 41.2908 -71.9869 245° Southwest 112 129 4,600  Level Boston Center
01:24PM 41.2783 -72.0258 247° West 113 130 5,500 840 Climbing Boston Center
01:25PM 41.2661 -72.0617 246° West 115 132 6,300 840 Climbing Boston Center
01:26PM 41.2536 -72.1006 247° West 118 136 7,200 840 Climbing Boston Center
01:27PM 41.2414 -72.1392 247° West 110 127 8,100 660 Climbing Boston Center
01:28PM 41.2502 -72.2723 245° Southwest  Level Estimated
01:28PM 41.2308 -72.1669 243° Southwest 113 130 8,500  Level Boston Center
01:30PM 41.1833 -72.3000 245° Southwest 154 177 8,600  Climbing New York TRACON
01:31PM 41.1667 -72.3500 246° West 155 178 8,600  Level New York TRACON
01:32PM 41.1500 -72.4000 246° West 155 178 8,600  Level New York TRACON
01:33PM 41.1333 -72.4500 246° West 158 182 8,600  Level New York TRACON
01:34PM 41.1167 -72.5000 246° West 156 180 8,600  Level New York TRACON
01:35PM 41.1000 -72.5500 246° West 159 183 8,600  Level New York TRACON
01:36PM 41.0833 -72.6000 246° West 160 184 8,600  Level New York TRACON
01:37PM 41.0500 -72.6500 229° Southwest 161 185 8,600  Level New York TRACON
01:38PM 41.0333 -72.7167 252° West 160 184 8,600  Level New York TRACON
01:39PM 41.0167 -72.7667 246° West 161 185 8,600  Level New York TRACON
01:40PM 40.9833 -72.8167 229° Southwest 161 185 8,600  Level New York TRACON
01:41PM 40.9667 -72.8667 246° West 159 183 8,600  Level New York TRACON
01:42PM 40.9500 -72.9167 246° West 157 181 8,600  Level New York TRACON
01:43PM 40.9333 -72.9667 246° West 157 181 8,600  Level New York TRACON
01:44PM 40.9167 -73.0167 246° West 160 184 8,600  Level New York TRACON
01:45PM 40.8833 -73.0667 229° Southwest 157 181 8,600  Level New York TRACON
01:46PM 40.8500 -73.1167 229° Southwest 162 186 8,600  Level New York TRACON
01:47PM 40.8333 -73.1500 237° Southwest 159 183 8,600  Level New York TRACON
01:48PM 40.8167 -73.2167 252° West 162 186 8,600  Level New York TRACON
01:49PM 40.8000 -73.2667 246° West 161 185 8,600  Level New York TRACON
01:50PM 40.7833 -73.3167 246° West 159 183 8,600  Level New York TRACON
01:51PM 40.7667 -73.3833 252° West 160 184 8,600  Level New York TRACON
01:52PM 40.7500 -73.4333 246° West 157 181 8,600  Level New York TRACON
01:53PM 40.7333 -73.4833 246° West 159 183 8,600  Level New York TRACON
01:54PM 40.7167 -73.5500 252° West 159 183 8,600  Level New York TRACON
01:55PM 40.7000 -73.6000 246° West 159 183 8,600  Level New York TRACON
01:56PM 40.6833 -73.6500 246° West 160 184 8,600  Level New York TRACON
01:57PM 40.6833 -73.7000 270° West 156 180 8,600  Level New York TRACON
01:58PM 40.6667 -73.7667 252° West 161 185 8,600  Level New York TRACON
01:59PM 40.6500 -73.8167 246° West 161 185 8,600  Level New York TRACON
02:00PM 40.6333 -73.8667 246° West 162 186 8,600  Level New York TRACON
02:01PM 40.6167 -73.9333 252° West 159 183 8,600  Level New York TRACON
02:02PM 40.6000 -73.9833 246° West 162 186 8,600  Level New York TRACON
02:03PM 40.5833 -74.0333 246° West 161 185 8,600  Level New York TRACON
02:04PM 40.5667 -74.1000 252° West 164 189 8,600  Level New York TRACON
02:05PM 40.5500 -74.1500 246° West 166 191 8,600  Level New York TRACON
02:06PM 40.5333 -74.2000 246° West 167 192 8,600  Level New York TRACON
02:07PM 40.5167 -74.2667 252° West 166 191 8,600  Level New York TRACON
02:08PM 40.5000 -74.3000 237° Southwest 163 188 8,600  Level New York TRACON
02:09PM 40.4833 -74.3667 252° West 165 190 8,600 -240 Level New York TRACON
02:10PM 40.4667 -74.4167 246° West 172 198 8,100 -480 Descending New York TRACON
02:11PM 40.4500 -74.4833 252° West 180 207 7,700 -540 Descending New York TRACON
02:13PM 40.4000 -74.6000 241° Southwest 191 220 6,500 -600 Descending Philadelphia TRACON
02:14PM 40.3667 -74.6667 237° Southwest 186 214 6,000 -540 Descending Philadelphia TRACON
02:15PM 40.3333 -74.7167 229° Southwest 186 214 5,500 -480 Descending Philadelphia TRACON
02:16PM 40.3000 -74.7833 237° Southwest 187 215 5,000 -540 Descending Philadelphia TRACON
02:17PM 40.2833 -74.8333 246° West 186 214 4,500 -360 Descending Philadelphia TRACON
02:18PM 40.2667 -74.9000 252° West 162 186 4,300 -360 Descending Philadelphia TRACON
02:19PM 40.2500 -74.9500 246° West 170 196 3,800 -600 Descending Philadelphia TRACON
02:20PM 40.2333 -75.0000 246° West 171 197 3,200 -600 Descending Philadelphia TRACON
02:21PM 40.2167 -75.0500 246° West 162 186 2,700 -600 Descending Philadelphia TRACON
02:23PM 40.1913 -75.1008 237° Southwest  Level FlightAware Approximate
02:30PM 40.1333 -75.2500 252° West  Level FlightAware Approximate
02:31PM 40.1376 -75.2651 252° West  Level Estimated
02:32PM 40.1376 -75.2651 252° West  Level Estimated
02:33PM 40.1376 -75.2651 252° West  Level Estimated
02:34PM 40.1376 -75.2651 252° West  Level Estimated